Wilmington, New York
Current Conditions -  °F | °C
As of 8:51 AM on Monday 26 Jan 2015 (Local Time) from KSLK Reporting Station
Clear Clear  
Wind Chill: -26°   Ceiling: Unl
Heat Index: -11°   Visibility: 10mi
Dew Point: -16°   Wind: 7mph
Humidity: 78%   Direction: 30°NNE
Pressure: 29.97"   Gusts: NA
Location:  44.39°N, 73.82°W
Report Text: KSLK 261351Z AUTO 03006KT 10SM CLR M24/M27 A2997 RMK AO2 SLP202 T12391267
Loading
Personal Weather Stations






























Interactive Weather Map New forecast layout! Learn more

10-Day Weather Forecast

Advertisements
Track Severe Weather on mobile